Bluefield, West Virginia
Current Conditions -  °F | °C
As of 3:52 PM on Saturday 25 Oct 2014 (Local Time) from KBLF Reporting Station
Overcast Overcast  
Wind Chill: 64°   Ceiling: 3800
Heat Index: 64°   Visibility: 10mi
Dew Point: 40°   Wind: 13mph
Humidity: 41%   Direction: 270°W
Pressure: 30"   Gusts: NA
Location:  37.27°N, 81.22°W
Report Text: KBLF 251952Z AUTO 27011KT 10SM BKN038 OVC048 18/04 A3000 RMK AO2 SLP147 T01780044
Loading
Personal Weather Stations






























Interactive Weather Map New forecast layout! Learn more

10-Day Weather Forecast

Advertisements
Track Severe Weather on mobile